Terminal Aerodrome Forecast
Issued by NWS Shreveport, LA

Home | Current Version | Previous Version | Text Only | Print | Product List | Glossary On
Versions: 1 2 3 4 5 6 7 8 9 10 11 12 13 14 15 16
480
FTUS44 KSHV 202027 AAA
TAFELD
TAF AMD
KELD 202027Z 2020/2118 20011KT P6SM SCT250
     FM210000 19006KT P6SM SCT100 BKN250
     FM210700 17005KT P6SM BKN100 OVC150
     FM211000 19002KT 5SM BR BKN045 OVC090
      TEMPO 2111/2113 3SM BR BKN015 OVC030
     FM211500 22004KT 5SM BR OVC009=

USA.gov is the U.S. government's official web portal to all federal, state and local government web resources and services.